createdAt,value
2018-06-11T00:00:12.765Z,10.03
2018-06-11T00:02:40.932Z,10.80
2018-06-11T00:05:09.291Z,12.10
2018-06-11T00:07:37.480Z,11.90
2018-06-11T00:10:05.893Z,11.73
2018-06-11T00:12:34.144Z,12.37
2018-06-11T00:15:02.364Z,12.63
2018-06-11T00:17:30.619Z,13.17
2018-06-11T00:19:58.855Z,11.73
2018-06-11T00:22:27.030Z,13.63
2018-06-11T00:24:55.400Z,16.03
2018-06-11T00:27:23.691Z,12.13
2018-06-11T00:29:52.293Z,12.13
2018-06-11T00:32:20.447Z,12.50
2018-06-11T00:34:48.607Z,12.17
2018-06-11T00:37:16.824Z,12.10
2018-06-11T00:39:44.959Z,13.70
2018-06-11T00:42:13.160Z,17.23
2018-06-11T00:44:41.314Z,15.57
2018-06-11T00:47:09.604Z,13.77
2018-06-11T00:49:37.880Z,14.40
2018-06-11T00:52:06.179Z,14.57
2018-06-11T00:54:34.545Z,13.63
2018-06-11T00:57:02.733Z,14.47
2018-06-11T00:59:31.003Z,12.87
2018-06-11T01:01:59.144Z,12.73
2018-06-11T01:04:27.759Z,13.73
2018-06-11T01:06:55.911Z,14.30
2018-06-11T01:09:24.083Z,12.70
2018-06-11T01:11:52.275Z,13.20
2018-06-11T01:14:20.458Z,12.80
2018-06-11T01:16:49.015Z,12.87
2018-06-11T01:19:17.206Z,13.77
2018-06-11T01:21:45.559Z,12.70
2018-06-11T01:24:13.716Z,13.73
2018-06-11T01:26:42.148Z,13.33
2018-06-11T01:29:10.302Z,11.07
2018-06-11T01:31:38.496Z,12.20
2018-06-11T01:34:06.659Z,12.73
2018-06-11T01:36:35.161Z,13.83
2018-06-11T01:39:03.579Z,12.50
2018-06-11T01:41:31.707Z,13.93
2018-06-11T01:43:59.993Z,13.43
2018-06-11T01:46:28.207Z,12.40
2018-06-11T01:48:56.651Z,13.40
2018-06-11T01:51:24.799Z,13.63
2018-06-11T01:53:53.004Z,14.50
2018-06-11T01:56:21.151Z,12.50
2018-06-11T01:58:49.438Z,14.13
2018-06-11T02:01:17.578Z,14.37
2018-06-11T02:03:45.967Z,13.87
2018-06-11T02:06:14.177Z,14.83
2018-06-11T02:08:42.552Z,13.80
2018-06-11T02:11:10.821Z,15.83
2018-06-11T02:13:39.227Z,14.73
2018-06-11T02:16:07.823Z,15.50
2018-06-11T02:18:36.272Z,15.53
2018-06-11T02:21:04.762Z,15.33
2018-06-11T02:23:32.924Z,14.90
2018-06-11T02:26:01.124Z,14.27
2018-06-11T02:28:29.325Z,16.30
2018-06-11T02:30:57.640Z,16.27
2018-06-11T02:33:25.868Z,16.33
2018-06-11T02:35:54.020Z,16.33
2018-06-11T02:38:22.203Z,14.63
2018-06-11T02:40:50.468Z,14.50
2018-06-11T02:43:18.651Z,15.90
2018-06-11T02:45:46.804Z,12.80
2018-06-11T02:48:15.018Z,15.20
2018-06-11T02:50:43.364Z,14.17
2018-06-11T02:53:11.864Z,16.83
2018-06-11T02:55:40.127Z,15.23
2018-06-11T02:58:08.508Z,15.07
2018-06-11T03:00:36.783Z,13.40
2018-06-11T03:03:04.960Z,14.70
2018-06-11T03:05:33.165Z,16.00
2018-06-11T03:08:01.297Z,14.00
2018-06-11T03:10:29.993Z,15.30
2018-06-11T03:12:58.195Z,15.50
2018-06-11T03:15:26.578Z,14.43
2018-06-11T03:17:54.934Z,15.20
2018-06-11T03:20:23.235Z,14.37
2018-06-11T03:22:51.379Z,14.97
2018-06-11T03:25:19.559Z,15.07
2018-06-11T03:27:48.142Z,14.60
2018-06-11T03:30:16.324Z,15.33
2018-06-11T03:32:44.520Z,14.97
2018-06-11T03:35:12.721Z,14.37
2018-06-11T03:37:41.059Z,14.30
2018-06-11T03:40:09.240Z,14.77
2018-06-11T03:42:37.420Z,14.17
2018-06-11T03:45:05.593Z,13.63
2018-06-11T03:47:33.768Z,13.30
2018-06-11T03:50:02.001Z,13.77
2018-06-11T03:52:30.216Z,14.07
2018-06-11T03:54:58.387Z,13.20
2018-06-11T03:57:26.555Z,12.30
2018-06-11T03:59:54.746Z,10.70
2018-06-11T04:02:22.912Z,13.00
2018-06-11T04:04:51.090Z,12.73
2018-06-11T04:07:19.361Z,14.00
2018-06-11T04:09:47.714Z,13.90
2018-06-11T04:12:16.412Z,13.83
2018-06-11T04:14:44.623Z,14.50
2018-06-11T04:17:12.888Z,14.10
2018-06-11T04:19:41.315Z,13.70
2018-06-11T04:22:09.468Z,14.40
2018-06-11T04:24:37.716Z,12.50
2018-06-11T04:27:05.876Z,14.73
2018-06-11T04:29:34.100Z,13.20
2018-06-11T04:32:02.271Z,13.50
2018-06-11T04:34:30.425Z,12.60
2018-06-11T04:36:58.967Z,13.50
2018-06-11T04:39:27.600Z,13.87
2018-06-11T04:41:56.233Z,13.53
2018-06-11T04:44:24.448Z,12.70
2018-06-11T04:46:52.616Z,16.13
2018-06-11T04:49:20.824Z,12.47
2018-06-11T04:51:49.024Z,11.47
2018-06-11T04:54:17.775Z,11.47
2018-06-11T04:56:46.058Z,10.80
2018-06-11T04:59:14.456Z,12.27
2018-06-11T05:01:42.635Z,11.50
2018-06-11T05:04:10.825Z,12.17
2018-06-11T05:06:39.036Z,11.07
2018-06-11T05:09:07.532Z,11.63
2018-06-11T05:11:35.815Z,13.33
2018-06-11T05:14:04.147Z,12.30
2018-06-11T05:16:32.467Z,13.93
2018-06-11T05:19:01.050Z,15.13
2018-06-11T05:21:29.240Z,14.80
2018-06-11T05:23:57.617Z,14.03
2018-06-11T05:26:26.024Z,13.37
2018-06-11T05:28:54.364Z,15.57
2018-06-11T05:31:22.667Z,13.57
2018-06-11T05:33:50.912Z,14.00
2018-06-11T05:36:19.056Z,13.50
2018-06-11T05:38:47.548Z,12.50
2018-06-11T05:41:15.748Z,15.00
2018-06-11T05:43:43.932Z,14.20
2018-06-11T05:46:12.124Z,13.67
2018-06-11T05:48:40.278Z,15.80
2018-06-11T05:51:08.567Z,15.63
2018-06-11T05:53:36.804Z,14.30
2018-06-11T05:56:04.965Z,15.60
2018-06-11T05:58:33.115Z,15.43
2018-06-11T06:01:01.360Z,18.33
2018-06-11T06:03:29.564Z,14.10
2018-06-11T06:05:59.003Z,16.70
2018-06-11T06:08:28.591Z,18.50
2018-06-11T06:10:57.786Z,20.20
2018-06-11T06:13:26.938Z,20.10
2018-06-11T06:15:56.175Z,20.17
2018-06-11T06:18:25.395Z,19.83
2018-06-11T06:20:54.612Z,18.87
2018-06-11T06:23:23.645Z,18.93
2018-06-11T06:25:52.836Z,17.10
2018-06-11T06:28:21.983Z,18.27
2018-06-11T06:30:51.326Z,17.83
2018-06-11T06:33:20.594Z,16.60
2018-06-11T06:35:49.745Z,16.83
2018-06-11T06:38:18.968Z,16.70
2018-06-11T06:40:48.061Z,16.13
2018-06-11T06:43:17.304Z,15.43
2018-06-11T06:45:46.437Z,15.37
2018-06-11T06:48:15.777Z,16.23
2018-06-11T06:50:45.000Z,13.10
2018-06-11T06:53:14.264Z,11.43
2018-06-11T06:55:43.574Z,10.20
2018-06-11T06:58:12.685Z,11.13
2018-06-11T07:00:41.886Z,10.03
2018-06-11T07:03:10.827Z,10.50
2018-06-11T07:05:39.777Z,10.27
2018-06-11T07:08:08.762Z,9.83
2018-06-11T07:10:37.100Z,10.43
2018-06-11T07:13:05.892Z,12.13
2018-06-11T07:15:34.676Z,10.90
2018-06-11T07:18:03.708Z,11.53
2018-06-11T07:20:32.676Z,11.40
2018-06-11T07:23:01.714Z,12.47
2018-06-11T07:25:30.563Z,11.27
2018-06-11T07:27:59.071Z,12.17
2018-06-11T07:30:27.312Z,12.20
2018-06-11T07:32:55.804Z,11.50
2018-06-11T07:35:25.029Z,11.43
2018-06-11T07:37:54.255Z,12.30
2018-06-11T07:40:23.114Z,10.80
2018-06-11T07:42:51.843Z,10.80
2018-06-11T07:45:20.251Z,11.87
2018-06-11T07:47:48.376Z,12.33
2018-06-11T07:50:17.695Z,12.10
2018-06-11T07:52:47.127Z,10.63
2018-06-11T07:55:16.040Z,12.63
2018-06-11T07:57:44.164Z,12.27
2018-06-11T08:00:12.317Z,11.70
2018-06-11T08:02:40.451Z,11.40
2018-06-11T08:05:08.992Z,12.67
2018-06-11T08:07:37.216Z,12.10
2018-06-11T08:10:05.427Z,12.77
2018-06-11T08:12:33.574Z,11.87
2018-06-11T08:15:01.721Z,11.70
2018-06-11T08:17:29.893Z,11.03
2018-06-11T08:19:58.052Z,12.47
2018-06-11T08:22:26.228Z,11.70
2018-06-11T08:24:54.360Z,11.70
2018-06-11T08:27:22.559Z,12.93
2018-06-11T08:29:50.900Z,12.53
2018-06-11T08:32:19.063Z,14.07
2018-06-11T08:34:47.212Z,11.80
2018-06-11T08:37:15.380Z,11.60
2018-06-11T08:39:43.536Z,12.23
2018-06-11T08:42:11.698Z,11.50
2018-06-11T08:44:39.840Z,12.03
2018-06-11T08:47:07.984Z,11.90
2018-06-11T08:49:36.155Z,9.80
2018-06-11T08:52:04.292Z,9.77
2018-06-11T08:54:32.496Z,9.40
2018-06-11T08:57:00.675Z,10.10
2018-06-11T08:59:29.218Z,9.97
2018-06-11T09:01:57.468Z,10.20
2018-06-11T09:04:25.620Z,9.10
2018-06-11T09:06:53.756Z,9.27
2018-06-11T09:09:21.914Z,10.00
2018-06-11T09:11:50.048Z,9.00
2018-06-11T09:14:18.344Z,10.87
2018-06-11T09:16:46.578Z,9.90
2018-06-11T09:19:14.920Z,8.70
2018-06-11T09:21:43.076Z,9.43
2018-06-11T09:24:11.224Z,10.27
2018-06-11T09:26:39.384Z,9.10
2018-06-11T09:29:07.566Z,10.00
2018-06-11T09:31:35.872Z,8.80
2018-06-11T09:34:04.021Z,10.07
2018-06-11T09:36:32.224Z,9.87
2018-06-11T09:39:00.371Z,10.30
2018-06-11T09:41:28.554Z,9.33
2018-06-11T09:43:56.749Z,9.70
2018-06-11T09:46:25.044Z,10.33
2018-06-11T09:48:53.240Z,9.60
2018-06-11T09:51:21.460Z,8.93
2018-06-11T09:53:49.644Z,8.53
2018-06-11T09:56:17.787Z,10.00
2018-06-11T09:58:45.986Z,9.53
2018-06-11T10:01:14.244Z,9.40
2018-06-11T10:03:42.590Z,10.13
2018-06-11T10:06:10.840Z,9.17
2018-06-11T10:08:39.002Z,10.10
2018-06-11T10:11:07.144Z,9.13
2018-06-11T10:13:35.707Z,9.27
2018-06-11T10:16:04.108Z,10.33
2018-06-11T10:18:32.271Z,9.87
2018-06-11T10:21:00.416Z,9.47
2018-06-11T10:23:28.567Z,8.97
2018-06-11T10:25:56.723Z,8.17
2018-06-11T10:28:24.936Z,8.20
2018-06-11T10:30:53.053Z,8.20
2018-06-11T10:33:21.207Z,9.57
2018-06-11T10:35:49.389Z,9.37
2018-06-11T10:38:18.782Z,8.83
2018-06-11T10:40:46.973Z,8.43
2018-06-11T10:43:15.220Z,9.37
2018-06-11T10:45:43.453Z,9.43
2018-06-11T10:48:11.707Z,10.07
2018-06-11T10:50:39.968Z,9.90
2018-06-11T10:53:08.347Z,9.47
2018-06-11T10:55:36.744Z,9.10
2018-06-11T10:58:05.128Z,9.53
2018-06-11T11:00:33.507Z,10.40
2018-06-11T11:03:01.719Z,9.63
2018-06-11T11:05:29.898Z,9.33
2018-06-11T11:07:58.157Z,9.07
2018-06-11T11:10:26.320Z,14.40
2018-06-11T11:12:54.590Z,10.40
2018-06-11T11:15:22.725Z,9.20
2018-06-11T11:17:50.985Z,9.53
2018-06-11T11:20:19.187Z,9.43
2018-06-11T11:22:47.429Z,8.40
2018-06-11T11:25:15.610Z,9.20
2018-06-11T11:27:44.248Z,9.20
2018-06-11T11:30:12.639Z,9.30
2018-06-11T11:32:40.888Z,8.77
2018-06-11T11:35:09.073Z,11.83
2018-06-11T11:37:37.339Z,10.77
2018-06-11T11:40:05.596Z,8.30
2018-06-11T11:42:33.788Z,9.17
2018-06-11T11:45:01.978Z,9.33
2018-06-11T11:47:30.199Z,9.37
2018-06-11T11:49:58.457Z,9.67
2018-06-11T11:52:26.687Z,9.30
2018-06-11T11:54:54.883Z,9.33
2018-06-11T11:57:23.055Z,9.17
2018-06-11T11:59:51.182Z,10.10
2018-06-11T12:02:20.189Z,11.53
2018-06-11T12:04:48.328Z,8.60
2018-06-11T12:07:16.488Z,9.23
2018-06-11T12:09:44.748Z,8.67
2018-06-11T12:12:12.940Z,8.77
2018-06-11T12:14:41.116Z,8.23
2018-06-11T12:17:09.260Z,9.60
2018-06-11T12:19:37.416Z,8.93
2018-06-11T12:22:05.579Z,9.20
2018-06-11T12:24:33.728Z,9.07
2018-06-11T12:27:02.072Z,9.13
2018-06-11T12:29:30.311Z,8.60
2018-06-11T12:31:58.615Z,9.37
2018-06-11T12:34:26.840Z,10.50
2018-06-11T12:36:55.088Z,9.47
2018-06-11T12:39:23.295Z,10.60
2018-06-11T12:41:51.468Z,9.97
2018-06-11T12:44:21.236Z,9.23
2018-06-11T12:46:49.407Z,11.83
2018-06-11T12:49:17.583Z,9.30
2018-06-11T12:51:45.812Z,9.73
2018-06-11T12:54:14.099Z,9.10
2018-06-11T12:56:42.419Z,10.47
2018-06-11T12:59:10.655Z,10.30
2018-06-11T13:01:38.822Z,11.23
2018-06-11T13:04:07.182Z,9.83
2018-06-11T13:06:35.532Z,10.17
2018-06-11T13:09:05.412Z,10.73
2018-06-11T13:11:33.637Z,11.60
2018-06-11T13:14:02.298Z,11.07
2018-06-11T13:16:30.772Z,10.70
2018-06-11T13:18:58.983Z,11.07
2018-06-11T13:21:27.194Z,10.80
2018-06-11T13:23:55.419Z,11.90
2018-06-11T13:26:24.112Z,11.63
2018-06-11T13:28:52.268Z,10.77
2018-06-11T13:31:20.476Z,10.37
2018-06-11T13:33:48.692Z,10.37
2018-06-11T13:36:16.900Z,10.67
2018-06-11T13:38:45.335Z,11.80
2018-06-11T13:41:13.552Z,11.27
2018-06-11T13:43:41.896Z,11.30
2018-06-11T13:46:10.044Z,11.97
2018-06-11T13:48:38.199Z,13.23
2018-06-11T13:51:06.400Z,11.60
2018-06-11T13:53:34.577Z,11.97
2018-06-11T13:56:03.089Z,12.43
2018-06-11T13:58:31.235Z,13.87
2018-06-11T14:00:59.404Z,12.47
2018-06-11T14:03:27.569Z,12.60
2018-06-11T14:05:55.741Z,12.60
2018-06-11T14:08:24.016Z,12.67
2018-06-11T14:10:52.342Z,13.13
2018-06-11T14:13:20.588Z,12.40
2018-06-11T14:15:48.806Z,13.23
2018-06-11T14:18:17.160Z,13.83
2018-06-11T14:20:45.323Z,10.43
2018-06-11T14:23:13.509Z,11.30
2018-06-11T14:25:41.773Z,11.50
2018-06-11T14:28:09.960Z,11.70
2018-06-11T14:30:38.192Z,12.27
2018-06-11T14:33:06.531Z,11.83
2018-06-11T14:35:34.772Z,9.87
2018-06-11T14:38:03.055Z,11.07
2018-06-11T14:40:31.425Z,10.13
2018-06-11T14:42:59.615Z,10.70
2018-06-11T14:45:27.868Z,9.50
2018-06-11T14:47:56.052Z,10.10
2018-06-11T14:50:24.369Z,9.23
2018-06-11T14:52:52.520Z,9.27
2018-06-11T14:55:20.724Z,8.33
2018-06-11T14:57:48.879Z,8.40
2018-06-11T15:00:17.065Z,7.90
2018-06-11T15:02:45.247Z,8.13
2018-06-11T15:05:13.885Z,8.57
2018-06-11T15:07:42.160Z,8.87
2018-06-11T15:10:10.352Z,8.90
2018-06-11T15:12:38.722Z,8.30
2018-06-11T15:15:06.903Z,10.77
2018-06-11T15:17:35.187Z,11.37
2018-06-11T15:20:03.731Z,8.90
2018-06-11T15:22:31.979Z,8.00
2018-06-11T15:25:00.209Z,9.67
2018-06-11T15:27:28.401Z,11.20
2018-06-11T15:29:56.660Z,8.90
2018-06-11T15:32:24.920Z,7.80
2018-06-11T15:34:53.104Z,11.30
2018-06-11T15:37:21.396Z,11.20
2018-06-11T15:39:49.593Z,10.37
2018-06-11T15:42:17.988Z,14.63
2018-06-11T15:44:46.140Z,12.17
2018-06-11T15:47:14.355Z,10.50
2018-06-11T15:49:42.639Z,11.33
2018-06-11T15:52:10.829Z,13.00
2018-06-11T15:54:38.964Z,6.30
2018-06-11T15:57:07.184Z,7.10
2018-06-11T15:59:35.569Z,10.00
2018-06-11T16:02:03.975Z,9.93
2018-06-11T16:04:32.432Z,10.37
2018-06-11T16:07:00.705Z,12.03
2018-06-11T16:09:29.024Z,8.07
2018-06-11T16:11:57.579Z,9.50
2018-06-11T16:14:25.968Z,9.07
2018-06-11T16:16:54.327Z,8.37
2018-06-11T16:19:22.588Z,14.97
2018-06-11T16:21:50.875Z,11.10
2018-06-11T16:24:19.050Z,6.60
2018-06-11T16:26:47.776Z,9.33
2018-06-11T16:29:15.932Z,9.03
2018-06-11T16:31:44.116Z,7.97
2018-06-11T16:34:12.294Z,6.53
2018-06-11T16:36:40.479Z,7.43
2018-06-11T16:39:08.644Z,4.50
2018-06-11T16:41:36.843Z,6.40
2018-06-11T16:44:05.705Z,6.07
2018-06-11T16:46:34.071Z,4.07
2018-06-11T16:49:02.294Z,6.17
2018-06-11T16:51:30.782Z,10.17
2018-06-11T16:53:59.046Z,7.17
2018-06-11T16:56:27.264Z,5.47
2018-06-11T16:58:55.418Z,6.50
2018-06-11T17:01:23.629Z,9.00
2018-06-11T17:03:51.812Z,3.53
2018-06-11T17:06:20.048Z,6.57
2018-06-11T17:08:48.421Z,3.60
2018-06-11T17:11:16.769Z,5.77
2018-06-11T17:13:44.910Z,5.20
2018-06-11T17:16:13.228Z,5.90
2018-06-11T17:18:41.480Z,4.10
2018-06-11T17:21:09.667Z,3.90
2018-06-11T17:23:37.830Z,4.60
2018-06-11T17:26:05.995Z,5.40
2018-06-11T17:28:34.137Z,4.33
2018-06-11T17:31:02.501Z,5.67
2018-06-11T17:33:30.667Z,5.20
2018-06-11T17:35:58.879Z,6.30
2018-06-11T17:38:27.053Z,6.27
2018-06-11T17:40:56.202Z,4.77
2018-06-11T17:43:24.360Z,4.93
2018-06-11T17:45:52.571Z,6.00
2018-06-11T17:48:20.749Z,6.23
2018-06-11T17:50:48.989Z,5.17
2018-06-11T17:53:17.277Z,5.33
2018-06-11T17:55:45.714Z,8.37
2018-06-11T17:58:13.867Z,8.07
2018-06-11T18:00:42.176Z,8.67
2018-06-11T18:03:10.349Z,8.60
2018-06-11T18:05:38.608Z,6.67
2018-06-11T18:08:06.793Z,6.30
2018-06-11T18:10:35.031Z,5.63
2018-06-11T18:13:03.255Z,5.10
2018-06-11T18:15:31.501Z,5.80
2018-06-11T18:17:59.887Z,5.73
2018-06-11T18:20:28.053Z,9.47
2018-06-11T18:22:56.329Z,5.60
2018-06-11T18:25:24.493Z,4.60
2018-06-11T18:27:52.724Z,4.60
2018-06-11T18:30:20.949Z,3.27
2018-06-11T18:32:49.254Z,8.73
2018-06-11T18:35:17.449Z,3.53
2018-06-11T18:37:46.089Z,6.33
2018-06-11T18:40:14.299Z,3.30
2018-06-11T18:42:42.501Z,3.67
2018-06-11T18:45:10.664Z,3.37
2018-06-11T18:47:38.863Z,4.10
2018-06-11T18:50:07.275Z,3.30
2018-06-11T18:52:35.540Z,3.63
2018-06-11T18:55:03.969Z,3.77
2018-06-11T18:57:32.303Z,3.33
2018-06-11T19:00:00.575Z,6.10
2018-06-11T19:02:28.870Z,4.13
2018-06-11T19:04:57.141Z,3.23
2018-06-11T19:07:25.421Z,4.97
2018-06-11T19:09:53.639Z,3.10
2018-06-11T19:12:21.831Z,5.77
2018-06-11T19:14:50.196Z,3.03
2018-06-11T19:17:18.432Z,2.87
2018-06-11T19:19:46.742Z,4.63
2018-06-11T19:22:15.122Z,4.10
2018-06-11T19:24:43.307Z,2.90
2018-06-11T19:27:11.756Z,3.67
2018-06-11T19:29:40.042Z,3.40
2018-06-11T19:32:08.438Z,4.03
2018-06-11T19:34:36.623Z,4.80
2018-06-11T19:37:04.887Z,3.50
2018-06-11T19:39:33.356Z,3.30
2018-06-11T19:42:01.773Z,3.10
2018-06-11T19:44:30.092Z,3.27
2018-06-11T19:46:58.538Z,3.63
2018-06-11T19:49:27.156Z,2.93
2018-06-11T19:51:55.340Z,3.27
2018-06-11T19:54:23.602Z,3.60
2018-06-11T19:56:51.993Z,5.00
2018-06-11T19:59:20.173Z,4.30
2018-06-11T20:01:48.488Z,3.67
2018-06-11T20:04:16.658Z,2.63
2018-06-11T20:06:44.855Z,2.77
2018-06-11T20:09:13.016Z,2.20
2018-06-11T20:11:41.188Z,3.13
2018-06-11T20:14:09.544Z,2.37
2018-06-11T20:16:37.842Z,3.60
2018-06-11T20:19:06.173Z,1.80
2018-06-11T20:21:34.352Z,2.10
2018-06-11T20:24:02.576Z,2.20
2018-06-11T20:26:30.807Z,3.60
2018-06-11T20:28:59.113Z,2.40
2018-06-11T20:31:27.275Z,1.97
2018-06-11T20:33:55.569Z,2.27
2018-06-11T20:36:23.711Z,1.93
2018-06-11T20:38:52.220Z,3.87
2018-06-11T20:41:20.472Z,2.17
2018-06-11T20:43:48.784Z,2.93
2018-06-11T20:46:17.043Z,2.87
2018-06-11T20:48:45.411Z,2.80
2018-06-11T20:51:13.645Z,4.50
2018-06-11T20:53:41.764Z,3.40
2018-06-11T20:56:09.948Z,3.67
2018-06-11T20:58:38.135Z,3.00
2018-06-11T21:01:06.344Z,3.83
2018-06-11T21:03:34.607Z,2.33
2018-06-11T21:06:02.976Z,2.40
2018-06-11T21:08:31.141Z,3.10
2018-06-11T21:10:59.325Z,5.40
2018-06-11T21:13:27.564Z,3.40
2018-06-11T21:15:55.749Z,2.97
2018-06-11T21:18:24.243Z,3.23
2018-06-11T21:20:52.405Z,3.90
2018-06-11T21:23:20.590Z,3.43
2018-06-11T21:25:49.159Z,2.70
2018-06-11T21:28:17.359Z,3.07
2018-06-11T21:30:45.499Z,3.20
2018-06-11T21:33:13.715Z,4.70
2018-06-11T21:35:41.852Z,4.07
2018-06-11T21:38:10.060Z,2.93
2018-06-11T21:40:38.381Z,4.33
2018-06-11T21:43:06.583Z,3.60
2018-06-11T21:45:34.981Z,3.10
2018-06-11T21:48:03.473Z,5.70
2018-06-11T21:50:31.886Z,5.30
2018-06-11T21:53:00.135Z,3.40
2018-06-11T21:55:28.433Z,9.53
2018-06-11T21:57:56.663Z,5.07
2018-06-11T22:00:24.828Z,4.70
2018-06-11T22:02:52.985Z,4.37
2018-06-11T22:05:21.198Z,6.00
2018-06-11T22:07:49.462Z,6.17
2018-06-11T22:10:17.639Z,4.37
2018-06-11T22:12:45.820Z,4.20
2018-06-11T22:15:13.972Z,6.10
2018-06-11T22:17:42.243Z,5.73
2018-06-11T22:20:10.379Z,5.57
2018-06-11T22:22:38.569Z,5.50
2018-06-11T22:25:06.793Z,5.83
2018-06-11T22:27:34.991Z,6.30
2018-06-11T22:30:03.213Z,5.27
2018-06-11T22:32:31.413Z,6.70
2018-06-11T22:34:59.584Z,5.43
2018-06-11T22:37:27.775Z,7.13
2018-06-11T22:39:56.040Z,6.83
2018-06-11T22:42:24.229Z,7.23
2018-06-11T22:44:52.419Z,7.20
2018-06-11T22:47:20.583Z,5.70
2018-06-11T22:49:48.855Z,5.93
2018-06-11T22:52:17.152Z,6.77
2018-06-11T22:54:45.348Z,10.77
2018-06-11T22:57:13.524Z,5.70
2018-06-11T22:59:41.675Z,6.23
2018-06-11T23:02:09.864Z,7.00
2018-06-11T23:04:37.972Z,6.20
2018-06-11T23:07:06.108Z,6.50
2018-06-11T23:09:34.268Z,10.00
2018-06-11T23:12:02.474Z,7.50
2018-06-11T23:14:30.615Z,7.77
2018-06-11T23:16:58.992Z,7.43
2018-06-11T23:19:27.330Z,9.77
2018-06-11T23:21:55.568Z,11.63
2018-06-11T23:24:23.747Z,8.80
2018-06-11T23:26:51.883Z,8.80
2018-06-11T23:29:20.059Z,11.33
2018-06-11T23:31:48.276Z,9.53
2018-06-11T23:34:16.456Z,8.07
2018-06-11T23:36:44.703Z,8.73
2018-06-11T23:39:12.896Z,8.67
2018-06-11T23:41:41.486Z,9.90
2018-06-11T23:44:09.764Z,9.33
2018-06-11T23:46:37.932Z,9.97
2018-06-11T23:49:06.088Z,9.20
2018-06-11T23:51:34.261Z,10.80
2018-06-11T23:54:02.504Z,9.43
2018-06-11T23:56:30.707Z,14.00
2018-06-11T23:58:58.881Z,13.00
